createdAt,value
2023-01-27T00:00:43.790Z,68.96
2023-01-27T00:03:13.393Z,68.94
2023-01-27T00:05:40.440Z,69.33
2023-01-27T00:08:06.987Z,69.70
2023-01-27T00:10:33.468Z,70.23
2023-01-27T00:13:18.824Z,69.74
2023-01-27T00:15:45.370Z,70.28
2023-01-27T00:18:12.169Z,70.41
2023-01-27T00:20:57.168Z,69.93
2023-01-27T00:23:45.580Z,69.51
2023-01-27T00:26:16.556Z,68.90
2023-01-27T00:28:45.202Z,68.80
2023-01-27T00:31:33.443Z,69.28
2023-01-27T00:34:08.839Z,69.36
2023-01-27T00:36:41.096Z,69.30
2023-01-27T00:39:10.567Z,69.35
2023-01-27T00:41:37.328Z,69.41
2023-01-27T00:44:05.672Z,69.50
2023-01-27T00:46:33.084Z,69.54
2023-01-27T00:48:59.660Z,69.01
2023-01-27T00:51:26.095Z,69.76
2023-01-27T00:53:52.564Z,69.34
2023-01-27T00:56:19.235Z,69.88
2023-01-27T00:58:45.777Z,69.99
2023-01-27T01:01:15.658Z,69.73
2023-01-27T01:03:42.374Z,69.34
2023-01-27T01:06:12.646Z,70.24
2023-01-27T01:08:39.235Z,70.11
2023-01-27T01:11:08.504Z,69.87
2023-01-27T01:13:35.557Z,69.71
2023-01-27T01:16:11.438Z,69.40
2023-01-27T01:18:39.048Z,69.88
2023-01-27T01:21:06.823Z,69.73
2023-01-27T01:23:37.546Z,69.64
2023-01-27T01:26:04.323Z,69.37
2023-01-27T01:28:30.797Z,70.00
2023-01-27T01:31:04.117Z,70.05
2023-01-27T01:33:30.699Z,69.27
2023-01-27T01:35:57.137Z,70.02
2023-01-27T01:38:23.605Z,69.32
2023-01-27T01:40:50.099Z,70.75
2023-01-27T01:43:18.656Z,70.67
2023-01-27T01:45:54.392Z,69.97
2023-01-27T01:48:42.358Z,70.31
2023-01-27T01:51:20.255Z,70.67
2023-01-27T01:54:11.190Z,70.58
2023-01-27T01:56:55.816Z,70.41
2023-01-27T01:59:36.472Z,69.79
2023-01-27T02:02:10.031Z,70.32
2023-01-27T02:04:56.881Z,70.32
2023-01-27T02:07:59.323Z,70.08
2023-01-27T02:10:26.077Z,70.68
2023-01-27T02:12:52.528Z,70.90
2023-01-27T02:15:21.440Z,70.81
2023-01-27T02:17:49.240Z,70.29
2023-01-27T02:20:29.430Z,70.20
2023-01-27T02:23:28.119Z,70.03
2023-01-27T02:26:17.566Z,70.57
2023-01-27T02:28:44.485Z,69.85
2023-01-27T02:31:11.209Z,69.74
2023-01-27T02:33:37.762Z,69.56
2023-01-27T02:36:17.776Z,69.71
2023-01-27T02:38:50.313Z,69.96
2023-01-27T02:41:28.105Z,70.71
2023-01-27T02:43:55.707Z,70.70
2023-01-27T02:46:23.024Z,70.09
2023-01-27T02:48:49.661Z,69.61
2023-01-27T02:51:16.176Z,70.03
2023-01-27T02:53:42.813Z,69.79
2023-01-27T02:56:09.472Z,69.74
2023-01-27T02:58:36.049Z,69.99
2023-01-27T03:01:02.589Z,69.65
2023-01-27T03:03:29.111Z,70.36
2023-01-27T03:05:55.708Z,70.05
2023-01-27T03:08:22.247Z,70.41
2023-01-27T03:10:54.581Z,69.86
2023-01-27T03:13:25.944Z,69.92
2023-01-27T03:16:13.514Z,69.86
2023-01-27T03:18:41.152Z,70.35
2023-01-27T03:21:07.605Z,70.06
2023-01-27T03:23:34.749Z,70.50
2023-01-27T03:26:06.973Z,70.25
2023-01-27T03:28:33.619Z,69.92
2023-01-27T03:31:19.230Z,69.89
2023-01-27T03:33:47.527Z,70.56
2023-01-27T03:36:33.661Z,70.41
2023-01-27T03:39:19.076Z,70.63
2023-01-27T03:42:04.321Z,70.50
2023-01-27T03:44:49.487Z,70.32
2023-01-27T03:47:15.963Z,70.38
2023-01-27T03:49:42.427Z,70.27
2023-01-27T03:52:08.906Z,70.07
2023-01-27T03:54:35.577Z,69.61
2023-01-27T03:57:05.804Z,69.25
2023-01-27T03:59:32.840Z,69.27
2023-01-27T04:02:19.475Z,69.19
2023-01-27T04:05:04.776Z,69.37
2023-01-27T04:07:34.047Z,69.28
2023-01-27T04:10:00.522Z,69.51
2023-01-27T04:12:27.258Z,69.16
2023-01-27T04:14:53.691Z,69.45
2023-01-27T04:17:20.117Z,69.71
2023-01-27T04:19:47.237Z,69.25
2023-01-27T04:22:18.266Z,69.18
2023-01-27T04:24:44.765Z,68.19
2023-01-27T04:27:15.348Z,68.86
2023-01-27T04:29:42.882Z,68.71
2023-01-27T04:32:12.305Z,68.93
2023-01-27T04:34:40.284Z,69.25
2023-01-27T04:37:09.840Z,68.99
2023-01-27T04:39:36.994Z,69.56
2023-01-27T04:42:03.935Z,68.83
2023-01-27T04:44:30.596Z,69.02
2023-01-27T04:46:57.064Z,68.84
2023-01-27T04:49:23.710Z,68.98
2023-01-27T04:51:50.206Z,68.98
2023-01-27T04:54:16.820Z,68.44
2023-01-27T04:56:59.077Z,68.45
2023-01-27T04:59:25.776Z,68.59
2023-01-27T05:01:52.823Z,68.88
2023-01-27T05:04:19.327Z,68.96
2023-01-27T05:06:45.845Z,68.71
2023-01-27T05:09:12.460Z,68.34
2023-01-27T05:11:39.008Z,68.13
2023-01-27T05:14:05.483Z,68.56
2023-01-27T05:16:32.091Z,69.38
2023-01-27T05:18:58.702Z,69.22
2023-01-27T05:21:30.832Z,69.47
2023-01-27T05:23:57.393Z,69.62
2023-01-27T05:26:27.643Z,68.89
2023-01-27T05:28:57.812Z,68.73
2023-01-27T05:31:29.864Z,69.25
2023-01-27T05:33:59.345Z,70.02
2023-01-27T05:36:27.049Z,69.86
2023-01-27T05:38:54.989Z,69.96
2023-01-27T05:41:22.885Z,70.10
2023-01-27T05:43:55.645Z,70.36
2023-01-27T05:46:29.266Z,70.32
2023-01-27T05:49:00.326Z,71.01
2023-01-27T05:51:30.989Z,70.49
2023-01-27T05:53:57.646Z,70.06
2023-01-27T05:56:26.303Z,70.08
2023-01-27T05:58:57.746Z,69.74
2023-01-27T06:01:28.788Z,68.79
2023-01-27T06:03:56.427Z,68.40
2023-01-27T06:06:25.878Z,69.21
2023-01-27T06:08:52.660Z,69.43
2023-01-27T06:11:21.641Z,68.90
2023-01-27T06:13:48.631Z,69.51
2023-01-27T06:16:18.079Z,69.21
2023-01-27T06:18:45.433Z,69.24
2023-01-27T06:21:14.141Z,69.48
2023-01-27T06:23:41.373Z,69.11
2023-01-27T06:26:16.295Z,69.57
2023-01-27T06:28:43.418Z,70.02
2023-01-27T06:31:17.869Z,69.45
2023-01-27T06:33:45.774Z,69.19
2023-01-27T06:36:16.844Z,69.21
2023-01-27T06:38:44.379Z,68.79
2023-01-27T06:41:11.275Z,68.48
2023-01-27T06:43:37.795Z,69.03
2023-01-27T06:46:05.916Z,69.99
2023-01-27T06:48:33.238Z,69.83
2023-01-27T06:50:59.798Z,70.24
2023-01-27T06:53:26.465Z,69.93
2023-01-27T06:55:59.402Z,69.17
2023-01-27T06:58:26.928Z,69.66
2023-01-27T07:00:53.506Z,69.65
2023-01-27T07:03:20.303Z,69.83
2023-01-27T07:05:46.838Z,69.32
2023-01-27T07:08:13.333Z,69.97
2023-01-27T07:10:39.859Z,70.48
2023-01-27T07:13:13.427Z,70.53
2023-01-27T07:15:40.477Z,70.68
2023-01-27T07:18:07.484Z,70.86
2023-01-27T07:20:34.874Z,70.41
2023-01-27T07:23:04.452Z,70.06
2023-01-27T07:25:33.524Z,69.66
2023-01-27T07:28:02.359Z,69.93
2023-01-27T07:30:29.756Z,69.96
2023-01-27T07:32:56.301Z,69.62
2023-01-27T07:35:23.407Z,69.96
2023-01-27T07:37:49.961Z,69.98
2023-01-27T07:40:16.807Z,69.62
2023-01-27T07:42:43.439Z,69.47
2023-01-27T07:45:10.533Z,70.23
2023-01-27T07:47:37.216Z,69.92
2023-01-27T07:50:03.847Z,70.60
2023-01-27T07:52:30.332Z,70.29
2023-01-27T07:54:56.824Z,70.07
2023-01-27T07:57:23.312Z,69.71
2023-01-27T07:59:53.035Z,69.44
2023-01-27T08:02:19.478Z,68.89
2023-01-27T08:04:53.672Z,69.49
2023-01-27T08:07:21.456Z,68.78
2023-01-27T08:09:48.159Z,69.11
2023-01-27T08:12:15.105Z,69.31
2023-01-27T08:14:41.662Z,69.02
2023-01-27T08:17:08.296Z,68.82
2023-01-27T08:19:34.824Z,69.05
2023-01-27T08:22:01.333Z,69.32
2023-01-27T08:24:27.944Z,69.58
2023-01-27T08:26:54.701Z,69.16
2023-01-27T08:29:21.206Z,69.11
2023-01-27T08:31:47.960Z,68.73
2023-01-27T08:34:15.013Z,69.15
2023-01-27T08:36:43.409Z,69.27
2023-01-27T08:39:11.481Z,69.18
2023-01-27T08:41:38.766Z,68.80
2023-01-27T08:44:05.713Z,69.03
2023-01-27T08:46:32.313Z,69.23
2023-01-27T08:48:58.769Z,68.95
2023-01-27T08:51:25.391Z,69.25
2023-01-27T08:53:51.889Z,69.08
2023-01-27T08:56:18.627Z,69.49
2023-01-27T08:58:47.288Z,69.33
2023-01-27T09:01:15.669Z,69.33
2023-01-27T09:03:42.198Z,68.79
2023-01-27T09:06:12.580Z,68.62
2023-01-27T09:08:41.289Z,68.89
2023-01-27T09:11:13.697Z,68.34
2023-01-27T09:13:40.644Z,68.34
2023-01-27T09:16:08.179Z,68.20
2023-01-27T09:18:35.897Z,68.30
2023-01-27T09:21:06.847Z,68.68
2023-01-27T09:23:34.336Z,68.45
2023-01-27T09:26:00.858Z,68.54
2023-01-27T09:28:27.468Z,68.11
2023-01-27T09:30:58.606Z,68.33
2023-01-27T09:33:26.069Z,68.39
2023-01-27T09:36:02.993Z,67.70
2023-01-27T09:38:49.750Z,67.71
2023-01-27T09:42:15.728Z,67.77
2023-01-27T09:45:20.331Z,67.42
2023-01-27T09:48:47.136Z,66.58
2023-01-27T09:51:58.950Z,66.61
2023-01-27T09:55:12.093Z,65.60
2023-01-27T09:58:16.978Z,66.17
2023-01-27T10:01:06.762Z,66.30
2023-01-27T10:04:04.131Z,66.40
2023-01-27T10:06:51.728Z,66.44
2023-01-27T10:09:50.502Z,65.73
2023-01-27T10:12:35.118Z,65.99
2023-01-27T10:15:16.710Z,65.46
2023-01-27T10:18:12.750Z,65.05
2023-01-27T10:21:01.591Z,64.62
2023-01-27T10:24:05.990Z,64.93
2023-01-27T10:26:50.212Z,64.58
2023-01-27T10:29:33.274Z,64.68
2023-01-27T10:32:09.448Z,63.94
2023-01-27T10:34:47.063Z,63.76
2023-01-27T10:37:35.324Z,64.03
2023-01-27T10:40:20.124Z,64.12
2023-01-27T10:43:11.769Z,64.18
2023-01-27T10:45:56.331Z,63.76
2023-01-27T10:49:07.795Z,63.56
2023-01-27T10:51:47.181Z,63.79
2023-01-27T10:54:38.823Z,64.04
2023-01-27T10:57:38.965Z,64.58
2023-01-27T11:00:46.548Z,64.86
2023-01-27T11:03:23.172Z,64.45
2023-01-27T11:05:56.365Z,64.36
2023-01-27T11:08:31.972Z,64.85
2023-01-27T11:11:23.449Z,64.89
2023-01-27T11:14:02.195Z,64.70
2023-01-27T11:16:38.509Z,64.80
2023-01-27T11:19:33.257Z,64.24
2023-01-27T11:22:08.159Z,65.68
2023-01-27T11:24:49.866Z,64.86
2023-01-27T11:27:24.125Z,65.19
2023-01-27T11:30:04.256Z,64.09
2023-01-27T11:33:06.115Z,65.05
2023-01-27T11:35:32.759Z,65.81
2023-01-27T11:38:14.584Z,65.44
2023-01-27T11:40:44.045Z,64.67
2023-01-27T11:43:19.942Z,64.16
2023-01-27T11:45:48.139Z,63.98
2023-01-27T11:48:22.348Z,63.88
2023-01-27T11:50:49.850Z,64.82
2023-01-27T11:53:36.675Z,64.19
2023-01-27T11:56:15.877Z,64.01
2023-01-27T11:59:16.222Z,63.62
2023-01-27T12:01:59.265Z,63.76
2023-01-27T12:04:55.270Z,64.01
2023-01-27T12:07:54.382Z,63.47
2023-01-27T12:10:42.090Z,63.32
2023-01-27T12:13:25.425Z,62.39
2023-01-27T12:16:01.841Z,63.05
2023-01-27T12:18:33.755Z,62.93
2023-01-27T12:21:04.871Z,63.08
2023-01-27T12:23:38.514Z,62.98
2023-01-27T12:26:09.680Z,61.79
2023-01-27T12:29:02.051Z,62.01
2023-01-27T12:31:32.880Z,62.09
2023-01-27T12:34:12.997Z,62.51
2023-01-27T12:36:44.183Z,62.79
2023-01-27T12:39:38.347Z,62.29
2023-01-27T12:42:04.808Z,61.44
2023-01-27T12:44:43.616Z,61.54
2023-01-27T12:47:36.570Z,61.99
2023-01-27T12:50:27.661Z,62.67
2023-01-27T12:53:05.866Z,62.17
2023-01-27T12:55:51.583Z,61.41
2023-01-27T12:58:33.562Z,60.99
2023-01-27T13:01:20.381Z,61.29
2023-01-27T13:03:54.886Z,61.24
2023-01-27T13:06:32.921Z,61.44
2023-01-27T13:09:02.070Z,61.30
2023-01-27T13:11:39.145Z,60.63
2023-01-27T13:14:17.180Z,61.02
2023-01-27T13:16:55.940Z,61.35
2023-01-27T13:19:37.006Z,61.58
2023-01-27T13:22:05.733Z,60.97
2023-01-27T13:24:42.539Z,62.17
2023-01-27T13:27:19.804Z,62.22
2023-01-27T13:30:03.659Z,62.35
2023-01-27T13:32:36.727Z,62.64
2023-01-27T13:35:45.123Z,62.26
2023-01-27T13:38:24.325Z,62.36
2023-01-27T13:40:51.117Z,62.83
2023-01-27T13:43:30.326Z,62.55
2023-01-27T13:46:17.352Z,63.21
2023-01-27T13:48:54.877Z,64.68
2023-01-27T13:51:28.299Z,64.51
2023-01-27T13:54:04.183Z,64.17
2023-01-27T13:56:55.273Z,63.84
2023-01-27T14:00:01.917Z,63.91
2023-01-27T14:03:15.822Z,64.27
2023-01-27T14:06:03.276Z,64.54
2023-01-27T14:08:55.507Z,64.09
2023-01-27T14:11:38.842Z,63.98
2023-01-27T14:14:58.459Z,63.45
2023-01-27T14:17:45.868Z,63.75
2023-01-27T14:20:40.140Z,64.00
2023-01-27T14:23:52.859Z,64.67
2023-01-27T14:26:47.081Z,65.29
2023-01-27T14:29:43.492Z,66.13
2023-01-27T14:32:56.253Z,65.81
2023-01-27T14:35:45.635Z,65.81
2023-01-27T14:38:34.409Z,66.61
2023-01-27T14:41:31.235Z,66.91
2023-01-27T14:44:44.119Z,67.22
2023-01-27T14:47:49.887Z,67.25
2023-01-27T14:50:53.812Z,66.97
2023-01-27T14:54:04.006Z,66.54
2023-01-27T14:56:57.402Z,66.28
2023-01-27T15:00:01.438Z,66.76
2023-01-27T15:03:00.082Z,66.54
2023-01-27T15:06:11.082Z,66.54
2023-01-27T15:08:53.903Z,66.53
2023-01-27T15:12:24.463Z,66.56
2023-01-27T15:15:28.347Z,67.43
2023-01-27T15:18:23.678Z,67.42
2023-01-27T15:21:19.090Z,66.89
2023-01-27T15:24:09.038Z,67.12
2023-01-27T15:26:37.974Z,67.12
2023-01-27T15:29:05.850Z,67.24
2023-01-27T15:31:32.786Z,67.45
2023-01-27T15:34:16.483Z,67.08
2023-01-27T15:37:24.993Z,66.26
2023-01-27T15:40:05.917Z,66.92
2023-01-27T15:42:52.283Z,67.14
2023-01-27T15:45:39.070Z,66.91
2023-01-27T15:48:14.779Z,67.25
2023-01-27T15:51:07.777Z,67.15
2023-01-27T15:53:56.280Z,67.12
2023-01-27T15:56:44.550Z,67.54
2023-01-27T15:59:57.214Z,66.92
2023-01-27T16:02:29.715Z,67.25
2023-01-27T16:05:23.836Z,67.75
2023-01-27T16:07:55.487Z,67.98
2023-01-27T16:10:27.452Z,67.79
2023-01-27T16:13:12.970Z,67.13
2023-01-27T16:15:39.486Z,66.68
2023-01-27T16:18:08.776Z,66.53
2023-01-27T16:21:02.145Z,66.32
2023-01-27T16:23:56.564Z,66.60
2023-01-27T16:26:43.091Z,66.88
2023-01-27T16:29:12.256Z,67.00
2023-01-27T16:31:41.931Z,66.85
2023-01-27T16:34:25.829Z,66.60
2023-01-27T16:37:33.683Z,66.15
2023-01-27T16:40:22.360Z,66.25
2023-01-27T16:43:16.626Z,65.21
2023-01-27T16:45:49.883Z,65.68
2023-01-27T16:48:44.886Z,66.09
2023-01-27T16:51:26.008Z,66.10
2023-01-27T16:53:59.779Z,66.46
2023-01-27T16:56:34.564Z,66.40
2023-01-27T16:59:07.369Z,66.90
2023-01-27T17:01:50.424Z,66.73
2023-01-27T17:04:26.999Z,67.05
2023-01-27T17:06:58.875Z,67.32
2023-01-27T17:09:31.767Z,66.91
2023-01-27T17:11:59.406Z,67.39
2023-01-27T17:14:35.519Z,66.95
2023-01-27T17:17:14.935Z,67.16
2023-01-27T17:19:48.403Z,66.83
2023-01-27T17:22:25.779Z,67.25
2023-01-27T17:24:56.579Z,67.04
2023-01-27T17:27:33.857Z,66.96
2023-01-27T17:30:08.386Z,68.03
2023-01-27T17:32:39.444Z,67.98
2023-01-27T17:35:20.198Z,67.82
2023-01-27T17:37:46.832Z,68.00
2023-01-27T17:40:21.099Z,68.04
2023-01-27T17:42:49.444Z,67.83
2023-01-27T17:45:24.457Z,67.70
2023-01-27T17:47:51.133Z,67.48
2023-01-27T17:50:25.129Z,68.29
2023-01-27T17:52:54.279Z,68.37
2023-01-27T17:55:25.586Z,67.65
2023-01-27T17:58:05.522Z,67.65
2023-01-27T18:00:40.208Z,67.32
2023-01-27T18:03:32.755Z,66.80
2023-01-27T18:05:59.577Z,66.67
2023-01-27T18:08:26.042Z,67.08
2023-01-27T18:10:52.857Z,66.99
2023-01-27T18:13:19.243Z,67.38
2023-01-27T18:16:13.590Z,66.52
2023-01-27T18:18:40.357Z,66.78
2023-01-27T18:21:09.475Z,66.57
2023-01-27T18:23:57.881Z,66.51
2023-01-27T18:26:31.838Z,66.59
2023-01-27T18:29:22.657Z,66.76
2023-01-27T18:31:57.746Z,66.73
2023-01-27T18:34:33.725Z,66.72
2023-01-27T18:37:08.943Z,66.76
2023-01-27T18:39:41.402Z,66.24
2023-01-27T18:42:16.414Z,66.44
2023-01-27T18:44:43.096Z,66.92
2023-01-27T18:47:23.059Z,66.26
2023-01-27T18:50:01.922Z,66.71
2023-01-27T18:52:29.470Z,67.21
2023-01-27T18:55:10.315Z,66.66
2023-01-27T18:57:36.940Z,67.24
2023-01-27T19:00:05.142Z,67.00
2023-01-27T19:02:31.950Z,67.26
2023-01-27T19:04:58.599Z,66.97
2023-01-27T19:07:26.651Z,67.52
2023-01-27T19:09:53.202Z,67.23
2023-01-27T19:12:19.784Z,66.81
2023-01-27T19:14:48.290Z,66.78
2023-01-27T19:17:23.064Z,66.56
2023-01-27T19:19:49.936Z,66.62
2023-01-27T19:22:19.469Z,66.21
2023-01-27T19:24:46.267Z,66.26
2023-01-27T19:27:17.407Z,66.40
2023-01-27T19:29:44.081Z,66.44
2023-01-27T19:32:15.315Z,66.53
2023-01-27T19:34:42.023Z,66.63
2023-01-27T19:37:18.503Z,66.38
2023-01-27T19:39:46.756Z,66.44
2023-01-27T19:42:15.694Z,66.39
2023-01-27T19:44:42.583Z,66.30
2023-01-27T19:47:13.753Z,66.00
2023-01-27T19:49:41.123Z,66.02
2023-01-27T19:52:07.688Z,65.74
2023-01-27T19:54:34.555Z,65.53
2023-01-27T19:57:01.414Z,66.08
2023-01-27T19:59:28.388Z,65.53
2023-01-27T20:01:56.532Z,65.67
2023-01-27T20:04:23.187Z,66.21
2023-01-27T20:06:52.584Z,66.46
2023-01-27T20:09:19.093Z,66.64
2023-01-27T20:11:45.584Z,66.65
2023-01-27T20:14:19.313Z,66.75
2023-01-27T20:16:47.077Z,66.84
2023-01-27T20:19:17.490Z,66.78
2023-01-27T20:21:45.916Z,66.87
2023-01-27T20:24:16.104Z,66.58
2023-01-27T20:26:42.681Z,66.56
2023-01-27T20:29:09.157Z,66.26
2023-01-27T20:31:38.819Z,66.55
2023-01-27T20:34:06.176Z,66.30
2023-01-27T20:36:32.872Z,66.15
2023-01-27T20:38:59.315Z,66.14
2023-01-27T20:41:25.866Z,66.45
2023-01-27T20:44:02.590Z,66.24
2023-01-27T20:46:29.742Z,66.13
2023-01-27T20:48:58.397Z,67.12
2023-01-27T20:51:24.905Z,67.41
2023-01-27T20:53:51.379Z,67.19
2023-01-27T20:56:23.749Z,66.57
2023-01-27T20:58:50.825Z,66.92
2023-01-27T21:01:21.856Z,66.21
2023-01-27T21:03:50.274Z,66.40
2023-01-27T21:06:19.706Z,66.57
2023-01-27T21:08:49.384Z,66.20
2023-01-27T21:11:19.497Z,66.41
2023-01-27T21:13:46.663Z,67.09
2023-01-27T21:16:14.046Z,66.45
2023-01-27T21:18:40.737Z,66.37
2023-01-27T21:21:07.274Z,66.17
2023-01-27T21:23:34.812Z,66.30
2023-01-27T21:26:11.491Z,65.85
2023-01-27T21:28:37.878Z,66.71
2023-01-27T21:31:11.023Z,66.63
2023-01-27T21:33:39.556Z,66.23
2023-01-27T21:36:10.565Z,65.87
2023-01-27T21:38:39.125Z,65.22
2023-01-27T21:41:45.172Z,65.26
2023-01-27T21:44:46.239Z,65.15
2023-01-27T21:47:16.498Z,65.25
2023-01-27T21:50:00.216Z,65.72
2023-01-27T21:52:35.835Z,65.00
2023-01-27T21:55:05.992Z,65.32
2023-01-27T21:57:33.336Z,64.76
2023-01-27T21:59:59.876Z,64.40
2023-01-27T22:02:26.639Z,64.32
2023-01-27T22:04:53.216Z,64.58
2023-01-27T22:07:20.266Z,64.50
2023-01-27T22:09:47.114Z,64.78
2023-01-27T22:12:16.185Z,64.51
2023-01-27T22:14:43.671Z,64.49
2023-01-27T22:17:10.671Z,64.78
2023-01-27T22:19:39.009Z,64.40
2023-01-27T22:22:07.726Z,65.12
2023-01-27T22:24:34.180Z,65.46
2023-01-27T22:27:00.809Z,65.61
2023-01-27T22:29:27.285Z,65.59
2023-01-27T22:31:53.824Z,66.43
2023-01-27T22:34:20.433Z,65.75
2023-01-27T22:36:52.516Z,66.25
2023-01-27T22:39:19.534Z,65.75
2023-01-27T22:41:46.426Z,66.22
2023-01-27T22:44:14.329Z,65.76
2023-01-27T22:46:42.563Z,65.65
2023-01-27T22:49:10.985Z,65.82
2023-01-27T22:51:38.137Z,65.68
2023-01-27T22:54:04.823Z,66.07
2023-01-27T22:56:31.612Z,66.15
2023-01-27T22:58:58.085Z,66.63
2023-01-27T23:01:24.631Z,67.18
2023-01-27T23:03:51.116Z,66.72
2023-01-27T23:06:17.597Z,67.04
2023-01-27T23:08:44.208Z,66.77
2023-01-27T23:11:11.777Z,66.81
2023-01-27T23:13:38.288Z,66.72
2023-01-27T23:16:05.422Z,66.88
2023-01-27T23:18:32.008Z,66.65
2023-01-27T23:21:05.055Z,66.67
2023-01-27T23:23:31.784Z,67.09
2023-01-27T23:25:58.372Z,66.35
2023-01-27T23:28:25.981Z,65.85
2023-01-27T23:30:52.786Z,65.92
2023-01-27T23:33:20.550Z,66.66
2023-01-27T23:35:47.692Z,66.17
2023-01-27T23:38:30.547Z,66.54
2023-01-27T23:41:18.121Z,66.23
2023-01-27T23:43:50.423Z,66.58
2023-01-27T23:46:17.105Z,66.68
2023-01-27T23:48:43.788Z,66.40
2023-01-27T23:51:13.509Z,66.64
2023-01-27T23:53:40.253Z,66.74
2023-01-27T23:56:11.670Z,65.58
2023-01-27T23:58:38.688Z,65.28
